This is the latest recevied weather packets stored in our database for station/object OK3MS-5. If no packets are shown the sender has not sent any weather packets the latest 1 day(s).
| Time | Temp. | Humidity | Pressure | Rain* | Wind** | Luminosity | Snow |
|---|---|---|---|---|---|---|---|
| 1777987504 | 23.33° C | 39% | 1002.5 hPa | 0 mm | 1.79 m/s, 156° | 140 W/m² | - |
| 1777987204 | 23.33° C | 39% | 1002.6 hPa | 0 mm | 2.24 m/s, 150° | 162 W/m² | - |
| 1777986905 | 23.33° C | 40% | 1002.6 hPa | 0 mm | 0 m/s | 181 W/m² | - |
| 1777986606 | 23.33° C | 41% | 1002.6 hPa | 0 mm | 1.34 m/s, 79° | 190 W/m² | - |
| 1777986305 | 23.33° C | 40% | 1002.7 hPa | 0 mm | 1.34 m/s, 134° | 195 W/m² | - |
| 1777986004 | 23.89° C | 41% | 1002.8 hPa | 0 mm | 1.34 m/s, 96° | 211 W/m² | - |
| 1777985704 | 23.89° C | 40% | 1002.8 hPa | 0 mm | 1.79 m/s, 76° | 507 W/m² | - |
| 1777985402 | 23.89° C | 40% | 1002.7 hPa | 0 mm | 0.89 m/s, 115° | 235 W/m² | - |
| 1777985103 | 23.33° C | 39% | 1002.8 hPa | 0 mm | 1.79 m/s, 119° | 163 W/m² | - |
| 1777984805 | 23.33° C | 40% | 1002.8 hPa | 0 mm | 1.34 m/s, 18° | 158 W/m² | - |
| 1777984503 | 23.89° C | 38% | 1002.9 hPa | 0 mm | 0.89 m/s, 122° | 167 W/m² | - |
| 1777984202 | 23.89° C | 41% | 1002.9 hPa | 0 mm | 0 m/s | 160 W/m² | - |
| 1777983903 | 23.89° C | 41% | 1002.8 hPa | 0 mm | 1.79 m/s, 59° | 156 W/m² | - |
| 1777983607 | 23.89° C | 41% | 1003 hPa | 0 mm | 0.45 m/s, 18° | 130 W/m² | - |
| 1777983303 | 23.89° C | 40% | 1002.9 hPa | 0 mm | 0 m/s | 141 W/m² | - |
| 1777983015 | 23.89° C | 40% | 1002.9 hPa | 0 mm | 0 m/s | 115 W/m² | - |
| 1777982705 | 24.44° C | 39% | 1002.8 hPa | 0 mm | 0 m/s | 109 W/m² | - |
| 1777982403 | 24.44° C | 37% | 1002.7 hPa | 0 mm | 0 m/s | 111 W/m² | - |
| 1777982103 | 24.44° C | 38% | 1002.9 hPa | 0 mm | 0 m/s | 120 W/m² | - |
| 1777981803 | 24.44° C | 37% | 1002.8 hPa | 0 mm | 0 m/s | 149 W/m² | - |
| 1777981504 | 24.44° C | 36% | 1002.9 hPa | 0 mm | 0 m/s | 154 W/m² | - |
| 1777981204 | 24.44° C | 36% | 1002.8 hPa | 0 mm | 0.89 m/s, 56° | 166 W/m² | - |
| 1777980903 | 24.44° C | 35% | 1002.8 hPa | 0 mm | 0 m/s | 184 W/m² | - |
| 1777980603 | 25° C | 34% | 1002.9 hPa | 0 mm | 2.24 m/s, 166° | 259 W/m² | - |
| 1777980303 | 25° C | 33% | 1002.8 hPa | 0 mm | 0.45 m/s, 174° | 190 W/m² | - |
* Rain latest hour (hover to see other rain measurements)
** Current wind speed in m/s (hover to see current wind gust speed)